Time;durP1;ratioP1;P1;durP2;ratioP2;P2;SDS_P1;SDS_P2;PMS_P1;PMS_P2;Temp;Humidity;BMP_temperature;BMP_pressure;BME280_temperature;BME280_humidity;BME280_pressure;Samples;Min_cycle;Max_cycle;Signal;HPM_P1;HPM_P2
2023/06/09 00:00:38;;;;;;;;;;;;;;;14.05;100.00;95048.34;4958807;29;1118;-53
2023/06/09 00:03:05;;;;;;;;;;;;;;;13.94;100.00;95053.34;4959026;29;1013;-53
2023/06/09 00:05:32;;;;;;;;;;;;;;;13.86;100.00;95052.41;4958585;29;1038;-53
2023/06/09 00:07:58;;;;;;;;;;;;;;;14.08;100.00;95052.53;4958973;28;3003;-54
2023/06/09 00:10:25;;;;;;;;;;;;;;;14.24;100.00;95046.94;4976987;28;2853;-53
2023/06/09 00:12:52;;;;;;;;;;;;;;;14.31;100.00;95051.59;4977858;28;1106;-53
2023/06/09 00:15:18;;;;;;;;;;;;;;;14.37;100.00;95050.84;4977905;28;960;-53
2023/06/09 00:17:45;;;;;;;;;;;;;;;14.34;100.00;95046.69;4977942;28;1052;-53
2023/06/09 00:20:12;;;;;;;;;;;;;;;14.19;100.00;95045.84;4977641;28;1903;-53
2023/06/09 00:22:44;;;;;;;;;;;;;;;14.21;100.00;95050.03;4977561;28;1241;-54
2023/06/09 00:25:12;;;;;;;;;;;;;;;14.24;100.00;95052.31;4977594;28;1701;-54
2023/06/09 00:27:43;;;;;;;;;;;;;;;14.17;100.00;95051.41;4977771;28;979;-54
2023/06/09 00:30:10;;;;;;;;;;;;;;;13.86;100.00;95047.03;4977931;28;983;-54
2023/06/09 00:32:36;;;;;;;;;;;;;;;13.71;100.00;95046.19;4977452;28;1110;-54
2023/06/09 00:35:03;;;;;;;;;;;;;;;13.65;100.00;95049.59;4977497;28;1058;-54
2023/06/09 00:37:30;;;;;;;;;;;;;;;13.78;100.00;95046.28;4976472;28;2920;-54
2023/06/09 00:39:57;;;;;;;;;;;;;;;13.91;100.00;95048.34;4976667;28;2880;-53
2023/06/09 00:42:23;;;;;;;;;;;;;;;13.93;100.00;95041.75;4977567;28;1034;-54
2023/06/09 00:44:49;;;;;;;;;;;;;;;13.98;100.00;95041.19;4977387;28;1049;-54
2023/06/09 00:47:16;;;;;;;;;;;;;;;14.01;100.00;95051.59;4977159;28;1054;-54
2023/06/09 00:49:43;;;;;;;;;;;;;;;14.02;100.00;95055.97;4977532;28;986;-54
2023/06/09 00:52:09;;;;;;;;;;;;;;;14.04;100.00;95040.47;4977039;28;983;-53
2023/06/09 00:54:36;;;;;;;;;;;;;;;13.76;100.00;95046.47;4977252;28;1137;-54
2023/06/09 00:57:03;;;;;;;;;;;;;;;13.50;100.00;95049.56;4977408;28;960;-54
2023/06/09 00:59:29;;;;;;;;;;;;;;;13.52;100.00;95049.38;4976777;28;1903;-54
2023/06/09 01:01:55;;;;;;;;;;;;;;;13.64;100.00;95050.63;4977282;28;1182;-54
2023/06/09 01:04:21;;;;;;;;;;;;;;;13.70;100.00;95049.03;4976927;28;1054;-54
2023/06/09 01:06:57;;;;;;;;;;;;;;;13.63;100.00;95040.88;4976757;28;1022;-54
2023/06/09 01:09:44;;;;;;;;;;;;;;;13.73;100.00;95043.31;4977022;28;1036;-54
2023/06/09 01:12:31;;;;;;;;;;;;;;;13.84;100.00;95046.38;4976696;28;1150;-54
2023/06/09 01:15:03;;;;;;;;;;;;;;;13.72;100.00;95053.22;4977038;28;1026;-54
2023/06/09 01:17:32;;;;;;;;;;;;;;;13.78;100.00;95047.13;4976953;28;1050;-54
2023/06/09 01:20:05;;;;;;;;;;;;;;;13.88;100.00;95049.53;4976570;28;1902;-54
2023/06/09 01:22:31;;;;;;;;;;;;;;;13.93;100.00;95047.13;4976397;28;1059;-54
2023/06/09 01:25:04;;;;;;;;;;;;;;;13.99;100.00;95043.72;4976200;28;1408;-54
2023/06/09 01:27:32;;;;;;;;;;;;;;;13.96;100.00;95046.78;4976701;28;1297;-54
2023/06/09 01:29:59;;;;;;;;;;;;;;;13.71;100.00;95045.34;4976408;28;1124;-54
2023/06/09 01:32:25;;;;;;;;;;;;;;;13.64;100.00;95040.72;4976545;28;1030;-54
2023/06/09 01:34:52;;;;;;;;;;;;;;;13.76;100.00;95045.66;4976578;28;1029;-54
2023/06/09 01:37:18;;;;;;;;;;;;;;;13.89;100.00;95042.28;4976327;28;978;-54
2023/06/09 01:39:46;;;;;;;;;;;;;;;13.97;100.00;95050.28;4976328;28;1983;-54
2023/06/09 01:42:12;;;;;;;;;;;;;;;14.01;100.00;95046.22;4976178;28;1031;-54
2023/06/09 01:44:38;;;;;;;;;;;;;;;13.92;100.00;95050.00;4976427;28;964;-54
2023/06/09 01:47:05;;;;;;;;;;;;;;;13.78;100.00;95046.28;4976519;28;957;-54
2023/06/09 01:49:47;;;;;;;;;;;;;;;13.68;100.00;95041.19;4976373;28;987;-54
2023/06/09 01:52:32;;;;;;;;;;;;;;;13.69;100.00;95039.31;4976263;28;1026;-54
2023/06/09 01:55:02;;;;;;;;;;;;;;;13.70;100.00;95039.16;4975967;28;1046;-54
2023/06/09 01:58:00;;;;;;;;;;;;;;;13.80;100.00;95039.72;4975845;28;1082;-54
2023/06/09 02:00:28;;;;;;;;;;;;;;;14.01;100.00;95033.59;4943377;28;1448;-54
2023/06/09 02:02:55;;;;;;;;;;;;;;;14.18;100.00;95042.31;4975842;28;932;-54
2023/06/09 02:05:22;;;;;;;;;;;;;;;14.15;100.00;95039.16;4975770;28;986;-54
2023/06/09 02:07:49;;;;;;;;;;;;;;;14.16;100.00;95038.97;4975606;28;1163;-54
2023/06/09 02:10:15;;;;;;;;;;;;;;;14.14;100.00;95041.03;4975010;28;1150;-54
2023/06/09 02:12:41;;;;;;;;;;;;;;;14.15;100.00;95037.31;4975984;28;1054;-54
2023/06/09 02:15:08;;;;;;;;;;;;;;;14.20;100.00;95036.75;4975619;28;1126;-54
2023/06/09 02:17:34;;;;;;;;;;;;;;;14.31;100.00;95033.59;4975845;28;978;-54
2023/06/09 02:20:00;;;;;;;;;;;;;;;14.33;100.00;95034.25;4975449;28;2036;-54
2023/06/09 02:22:26;;;;;;;;;;;;;;;14.44;100.00;95039.16;4975292;28;1055;-54
2023/06/09 02:24:52;;;;;;;;;;;;;;;14.33;100.00;95038.78;4975201;28;1594;-54
2023/06/09 02:27:18;;;;;;;;;;;;;;;14.19;100.00;95035.06;4975322;28;1046;-54
2023/06/09 02:29:44;;;;;;;;;;;;;;;14.18;100.00;95039.63;4975693;28;962;-54
2023/06/09 02:32:10;;;;;;;;;;;;;;;14.26;100.00;95044.06;4975353;28;990;-54
2023/06/09 02:34:37;;;;;;;;;;;;;;;14.31;100.00;95041.66;4975303;28;1017;-54
2023/06/09 02:37:07;;;;;;;;;;;;;;;14.25;100.00;95035.19;4975474;28;1010;-54
2023/06/09 02:39:34;;;;;;;;;;;;;;;14.13;100.00;95044.72;4975186;28;1903;-54
2023/06/09 02:42:00;;;;;;;;;;;;;;;14.05;100.00;95039.44;4975144;28;1101;-54
2023/06/09 02:44:26;;;;;;;;;;;;;;;14.02;100.00;95040.66;4974911;28;1070;-54
2023/06/09 02:46:52;;;;;;;;;;;;;;;14.27;100.00;95044.94;4975054;28;1036;-54
2023/06/09 02:49:18;;;;;;;;;;;;;;;14.36;100.00;95050.03;4975276;28;1292;-54
2023/06/09 02:51:44;;;;;;;;;;;;;;;14.38;100.00;95050.66;4974926;28;923;-54
2023/06/09 02:54:11;;;;;;;;;;;;;;;14.39;100.00;95052.31;4957727;28;1166;-54
2023/06/09 02:56:37;;;;;;;;;;;;;;;14.38;100.00;95056.03;4974861;28;1520;-54
2023/06/09 02:59:03;;;;;;;;;;;;;;;14.15;100.00;95053.47;4974818;28;1989;-54
2023/06/09 03:01:34;;;;;;;;;;;;;;;14.13;100.00;95063.53;4975054;28;1011;-54
2023/06/09 03:04:02;;;;;;;;;;;;;;;14.22;100.00;95051.66;4974863;28;1035;-54
2023/06/09 03:06:29;;;;;;;;;;;;;;;14.48;100.00;95053.06;4974552;28;1055;-54
2023/06/09 03:08:55;;;;;;;;;;;;;;;14.53;100.00;95056.03;4975020;28;1038;-54
2023/06/09 03:11:21;;;;;;;;;;;;;;;14.61;100.00;95055.13;4974829;28;1046;-54
2023/06/09 03:13:47;;;;;;;;;;;;;;;14.68;100.00;95057.88;4974746;28;1030;-54
2023/06/09 03:16:13;;;;;;;;;;;;;;;14.63;100.00;95058.44;4974600;28;1019;-53
2023/06/09 03:18:39;;;;;;;;;;;;;;;14.63;100.00;95048.50;4974765;28;1902;-54
2023/06/09 03:21:06;;;;;;;;;;;;;;;14.64;100.00;95050.19;4974828;28;996;-54
2023/06/09 03:23:32;;;;;;;;;;;;;;;14.56;100.00;95049.44;4974247;28;1671;-54
2023/06/09 03:25:59;;;;;;;;;;;;;;;14.54;100.00;95059.53;4974731;28;1656;-54
2023/06/09 03:28:26;;;;;;;;;;;;;;;14.54;100.00;95051.47;4974605;28;1050;-54
2023/06/09 03:30:53;;;;;;;;;;;;;;;14.50;100.00;95056.41;4974467;28;956;-54
2023/06/09 03:33:20;;;;;;;;;;;;;;;14.44;100.00;95052.59;4974584;28;932;-55
2023/06/09 03:35:47;;;;;;;;;;;;;;;14.41;100.00;95054.81;4974651;28;1002;-54
2023/06/09 03:38:13;;;;;;;;;;;;;;;14.43;100.00;95055.47;4974586;28;1997;-54
2023/06/09 03:40:39;;;;;;;;;;;;;;;14.44;100.00;95052.59;4974667;28;1046;-54
2023/06/09 03:43:07;;;;;;;;;;;;;;;14.49;100.00;95056.56;4974697;28;1289;-54
2023/06/09 03:45:34;;;;;;;;;;;;;;;14.49;100.00;95061.94;4973797;28;2385;-54
2023/06/09 03:48:00;;;;;;;;;;;;;;;14.55;100.00;95058.50;4964908;28;2915;-54
2023/06/09 03:50:26;;;;;;;;;;;;;;;14.68;100.00;95060.56;4973098;28;2998;-54
2023/06/09 03:52:52;;;;;;;;;;;;;;;14.88;100.00;95058.13;4974415;28;978;-54
2023/06/09 03:55:22;;;;;;;;;;;;;;;15.13;100.00;95061.28;4974411;28;968;-54
2023/06/09 03:57:48;;;;;;;;;;;;;;;15.38;100.00;95059.03;4974482;28;986;-55
2023/06/09 04:00:15;;;;;;;;;;;;;;;15.50;100.00;95068.28;4974087;28;1910;-54
2023/06/09 04:02:41;;;;;;;;;;;;;;;15.67;100.00;95065.28;4974246;28;932;-55
2023/06/09 04:05:07;;;;;;;;;;;;;;;15.47;100.00;95076.72;4974329;28;964;-55
2023/06/09 04:07:33;;;;;;;;;;;;;;;15.58;100.00;95068.13;4974352;28;980;-55
2023/06/09 04:09:59;;;;;;;;;;;;;;;15.44;100.00;95077.09;4974226;28;1036;-55
2023/06/09 04:12:25;;;;;;;;;;;;;;;15.37;100.00;95077.06;4973912;28;1056;-55
2023/06/09 04:14:52;;;;;;;;;;;;;;;15.34;100.00;95080.13;4974192;28;993;-55
2023/06/09 04:17:18;;;;;;;;;;;;;;;15.21;100.00;95083.53;4974190;28;1043;-55
2023/06/09 04:19:44;;;;;;;;;;;;;;;15.17;100.00;95084.09;4974098;28;1989;-55
2023/06/09 04:22:10;;;;;;;;;;;;;;;15.09;100.00;95078.84;4973820;28;1118;-55
2023/06/09 04:24:36;;;;;;;;;;;;;;;15.19;100.00;95079.34;4953136;29;1439;-55
2023/06/09 04:27:03;;;;;;;;;;;;;;;15.19;100.00;95082.06;4954720;28;975;-55
2023/06/09 04:29:32;;;;;;;;;;;;;;;15.23;100.00;95075.25;4954448;28;1102;-55
2023/06/09 04:31:59;;;;;;;;;;;;;;;15.18;100.00;95086.59;4954935;28;967;-55
2023/06/09 04:34:28;;;;;;;;;;;;;;;15.35;100.00;95086.38;4957844;28;1051;-55
2023/06/09 04:36:56;;;;;;;;;;;;;;;15.49;100.00;95082.75;4958404;29;1148;-55
2023/06/09 04:39:29;;;;;;;;;;;;;;;15.64;100.00;95090.78;4957848;28;1915;-55
2023/06/09 04:41:55;;;;;;;;;;;;;;;15.80;100.00;95093.25;4958126;28;1675;-55
2023/06/09 04:44:22;;;;;;;;;;;;;;;15.73;100.00;95083.41;4957904;28;967;-54
2023/06/09 04:46:49;;;;;;;;;;;;;;;15.69;100.00;95093.72;4958176;28;1029;-56
2023/06/09 04:49:15;;;;;;;;;;;;;;;15.70;100.00;95095.38;4958055;28;968;-55
2023/06/09 04:51:46;;;;;;;;;;;;;;;15.60;100.00;95101.09;4958056;28;1251;-56
2023/06/09 04:54:13;;;;;;;;;;;;;;;15.59;100.00;95104.84;4958060;28;1054;-55
2023/06/09 04:56:41;;;;;;;;;;;;;;;15.57;100.00;95106.03;4957783;28;1058;-55
2023/06/09 04:59:07;;;;;;;;;;;;;;;15.50;100.00;95100.59;4957649;28;1993;-55
2023/06/09 05:01:33;;;;;;;;;;;;;;;15.42;100.00;95096.19;4957699;28;908;-55
2023/06/09 05:04:00;;;;;;;;;;;;;;;15.33;100.00;95097.34;4957706;28;975;-55
2023/06/09 05:06:26;;;;;;;;;;;;;;;15.36;100.00;95101.50;4957729;28;1006;-55
2023/06/09 05:08:55;;;;;;;;;;;;;;;15.51;100.00;95093.34;4957881;28;1127;-56
2023/06/09 05:11:21;;;;;;;;;;;;;;;15.54;100.00;95096.50;4957131;28;1125;-56
2023/06/09 05:13:48;;;;;;;;;;;;;;;15.64;100.00;95096.16;4956867;28;1031;-56
2023/06/09 05:16:15;;;;;;;;;;;;;;;15.69;100.00;95093.72;4956987;28;1066;-55
2023/06/09 05:18:42;;;;;;;;;;;;;;;15.89;100.00;95088.50;4956207;28;1911;-55
2023/06/09 05:21:08;;;;;;;;;;;;;;;16.04;100.00;95084.91;4957311;29;1006;-55
2023/06/09 05:23:34;;;;;;;;;;;;;;;16.10;100.00;95089.50;4964759;28;1341;-56
2023/06/09 05:26:00;;;;;;;;;;;;;;;16.07;100.00;95089.88;4973689;28;988;-55
2023/06/09 05:28:26;;;;;;;;;;;;;;;16.10;100.00;95093.03;4976541;28;1042;-55
2023/06/09 05:30:52;;;;;;;;;;;;;;;16.29;100.00;95087.97;4976715;28;987;-55
2023/06/09 05:33:18;;;;;;;;;;;;;;;16.25;100.00;95092.91;4976119;28;1035;-55
2023/06/09 05:35:45;;;;;;;;;;;;;;;16.27;100.00;95087.34;4976630;28;1009;-55
2023/06/09 05:38:11;;;;;;;;;;;;;;;16.62;100.00;95076.50;4976085;28;1910;-55
2023/06/09 05:40:37;;;;;;;;;;;;;;;16.85;100.00;95076.25;4976164;28;1039;-55
2023/06/09 05:43:03;;;;;;;;;;;;;;;16.65;99.97;95082.34;4974874;28;2587;-56
2023/06/09 05:45:29;;;;;;;;;;;;;;;16.72;100.00;95082.41;4974929;28;1018;-55
2023/06/09 05:47:55;;;;;;;;;;;;;;;16.90;100.00;95080.03;4974263;28;2590;-55
2023/06/09 05:50:21;;;;;;;;;;;;;;;16.81;99.10;95083.03;4976192;28;980;-56
2023/06/09 05:52:47;;;;;;;;;;;;;;;16.94;100.00;95083.13;4976218;28;1066;-55
2023/06/09 05:55:16;;;;;;;;;;;;;;;17.05;97.96;95079.00;4976082;28;984;-55
2023/06/09 05:57:44;;;;;;;;;;;;;;;17.29;100.00;95088.44;4976138;28;1048;-55
2023/06/09 06:00:10;;;;;;;;;;;;;;;17.48;94.75;95094.91;4975840;28;1985;-55
2023/06/09 06:02:38;;;;;;;;;;;;;;;17.35;97.25;95082.22;4976003;28;976;-55
2023/06/09 06:05:07;;;;;;;;;;;;;;;17.48;98.60;95081.41;4976097;28;966;-56
2023/06/09 06:07:36;;;;;;;;;;;;;;;17.62;99.46;95085.78;4975705;28;1094;-55
2023/06/09 06:10:03;;;;;;;;;;;;;;;17.43;98.80;95079.31;4975684;28;996;-55
2023/06/09 06:12:30;;;;;;;;;;;;;;;17.50;100.00;95082.03;4975512;28;1150;-55
2023/06/09 06:14:56;;;;;;;;;;;;;;;17.94;99.26;95080.63;4975595;28;1027;-55
2023/06/09 06:17:22;;;;;;;;;;;;;;;18.46;98.77;95086.19;4975324;28;1106;-56
2023/06/09 06:19:49;;;;;;;;;;;;;;;18.66;91.44;95073.41;4975521;28;2009;-56
2023/06/09 06:22:15;;;;;;;;;;;;;;;19.06;89.35;95077.88;4975338;28;1102;-56
2023/06/09 06:24:41;;;;;;;;;;;;;;;19.43;93.40;95084.34;4975182;28;1669;-56
2023/06/09 06:27:08;;;;;;;;;;;;;;;19.29;93.22;95075.47;4958505;28;948;-56
2023/06/09 06:29:34;;;;;;;;;;;;;;;19.33;90.35;95072.31;4974835;28;3010;-56
2023/06/09 06:32:03;;;;;;;;;;;;;;;19.83;89.08;95083.28;4974907;28;2897;-56
2023/06/09 06:34:29;;;;;;;;;;;;;;;19.95;89.32;95076.06;4975484;28;1018;-56
2023/06/09 06:36:55;;;;;;;;;;;;;;;19.77;86.68;95079.56;4975228;28;978;-55
2023/06/09 06:39:21;;;;;;;;;;;;;;;19.83;89.46;95067.84;4975097;28;1914;-55
2023/06/09 06:41:48;;;;;;;;;;;;;;;20.18;87.85;95058.34;4975360;28;999;-56
2023/06/09 06:44:14;;;;;;;;;;;;;;;20.21;85.06;95064.16;4974921;28;1141;-56
2023/06/09 06:46:40;;;;;;;;;;;;;;;20.32;85.20;95056.31;4975117;28;947;-56
2023/06/09 06:49:06;;;;;;;;;;;;;;;20.53;85.77;95060.53;4975115;28;1012;-56
2023/06/09 06:51:32;;;;;;;;;;;;;;;20.74;82.63;95062.81;4974947;28;1049;-55
2023/06/09 06:53:58;;;;;;;;;;;;;;;21.04;84.13;95064.75;4974871;28;1043;-55
2023/06/09 06:56:25;;;;;;;;;;;;;;;21.19;81.94;95059.75;4974569;28;1213;-56
2023/06/09 06:58:52;;;;;;;;;;;;;;;21.11;82.71;95059.22;4974845;28;1911;-56
2023/06/09 07:01:21;;;;;;;;;;;;;;;21.30;81.87;95060.03;4975002;28;996;-56
2023/06/09 07:03:49;;;;;;;;;;;;;;;21.38;82.57;95054.25;4974795;28;1059;-55
2023/06/09 07:06:16;;;;;;;;;;;;;;;21.44;77.10;95058.81;4974578;28;1060;-55
2023/06/09 07:08:43;;;;;;;;;;;;;;;21.63;81.87;95060.41;4974916;28;1031;-55
2023/06/09 07:11:09;;;;;;;;;;;;;;;21.65;76.69;95049.31;4974889;28;1059;-55
2023/06/09 07:13:35;;;;;;;;;;;;;;;21.63;78.00;95038.66;4974860;28;1023;-55
2023/06/09 07:16:01;;;;;;;;;;;;;;;21.71;76.48;95037.47;4974834;28;955;-55
2023/06/09 07:18:28;;;;;;;;;;;;;;;22.07;78.32;95037.53;4974732;28;1907;-55
2023/06/09 07:20:54;;;;;;;;;;;;;;;22.02;78.39;95046.38;4974549;28;1863;-55
2023/06/09 07:23:20;;;;;;;;;;;;;;;22.27;76.36;95048.94;4974189;28;1532;-55
2023/06/09 07:25:46;;;;;;;;;;;;;;;22.31;76.33;95043.81;4974447;28;1626;-55
2023/06/09 07:28:12;;;;;;;;;;;;;;;22.20;74.28;95037.31;4974457;28;1074;-55
2023/06/09 07:30:41;;;;;;;;;;;;;;;22.64;75.37;95039.69;4974644;28;976;-56
2023/06/09 07:33:08;;;;;;;;;;;;;;;22.83;74.25;95038.44;4974533;28;988;-54
2023/06/09 07:35:35;;;;;;;;;;;;;;;22.88;69.13;95044.00;4974333;28;1121;-55
2023/06/09 07:38:01;;;;;;;;;;;;;;;22.99;71.86;95039.56;4974125;28;2500;-55
2023/06/09 07:40:27;;;;;;;;;;;;;;;23.02;72.88;95027.38;4973410;28;2854;-55
2023/06/09 07:42:53;;;;;;;;;;;;;;;23.14;72.67;95037.19;4974337;28;1631;-55
2023/06/09 07:45:19;;;;;;;;;;;;;;;23.27;69.72;95033.34;4974285;28;1121;-55
2023/06/09 07:47:45;;;;;;;;;;;;;;;23.22;70.05;95033.28;4974373;28;952;-55
2023/06/09 07:50:11;;;;;;;;;;;;;;;23.23;70.91;95034.09;4974175;28;1063;-55
2023/06/09 07:52:38;;;;;;;;;;;;;;;23.25;70.04;95032.78;4974483;28;992;-55
2023/06/09 07:55:05;;;;;;;;;;;;;;;23.50;70.67;95032.41;4974327;28;975;-53
2023/06/09 07:57:31;;;;;;;;;;;;;;;23.64;69.41;95034.81;4974309;28;979;-53
2023/06/09 07:59:57;;;;;;;;;;;;;;;23.61;68.07;95033.44;4974303;28;1906;-53
2023/06/09 08:02:23;;;;;;;;;;;;;;;23.49;66.00;95038.13;4974280;28;976;-53
2023/06/09 08:04:49;;;;;;;;;;;;;;;23.56;67.28;95036.91;4972807;28;2947;-53
2023/06/09 08:07:15;;;;;;;;;;;;;;;23.61;71.32;95040.78;4974406;28;995;-53
2023/06/09 08:09:41;;;;;;;;;;;;;;;23.90;67.23;95039.72;4978147;28;986;-53
2023/06/09 08:12:07;;;;;;;;;;;;;;;24.20;66.96;95032.25;4977910;28;1106;-53
2023/06/09 08:14:33;;;;;;;;;;;;;;;24.08;65.47;95029.63;4978016;28;944;-53
2023/06/09 08:16:59;;;;;;;;;;;;;;;24.22;67.51;95025.44;4977847;28;1059;-53
2023/06/09 08:19:25;;;;;;;;;;;;;;;24.19;66.25;95031.44;4977789;28;1987;-53
2023/06/09 08:21:52;;;;;;;;;;;;;;;24.40;65.66;95031.72;4977641;28;1050;-53
2023/06/09 08:24:18;;;;;;;;;;;;;;;24.47;63.78;95027.75;4977299;28;1682;-53
2023/06/09 08:26:44;;;;;;;;;;;;;;;24.80;63.95;95019.75;4977817;28;1022;-53
2023/06/09 08:29:10;;;;;;;;;;;;;;;24.93;64.13;95024.84;4977709;28;1006;-53
2023/06/09 08:31:39;;;;;;;;;;;;;;;24.99;64.07;95018.34;4977555;28;1166;-53
2023/06/09 08:34:06;;;;;;;;;;;;;;;24.94;64.21;95019.09;4977463;28;1034;-53
2023/06/09 08:36:32;;;;;;;;;;;;;;;24.78;63.87;95013.72;4977714;28;1037;-53
2023/06/09 08:38:58;;;;;;;;;;;;;;;24.84;65.65;95007.22;4977690;28;2671;-53
2023/06/09 08:41:27;;;;;;;;;;;;;;;25.03;66.18;95013.19;4977548;28;1027;-53
2023/06/09 08:43:53;;;;;;;;;;;;;;;25.20;65.51;95004.91;4977518;28;944;-52
2023/06/09 08:46:20;;;;;;;;;;;;;;;24.98;63.64;95002.19;4977117;28;1051;-53
2023/06/09 08:48:49;;;;;;;;;;;;;;;25.02;62.39;94995.94;4977114;28;1073;-53
2023/06/09 08:51:16;;;;;;;;;;;;;;;25.06;62.14;94993.53;4977355;28;1124;-53
2023/06/09 08:53:42;;;;;;;;;;;;;;;25.11;61.70;94999.88;4977387;28;1107;-53
2023/06/09 08:56:08;;;;;;;;;;;;;;;24.99;62.34;94992.91;4977287;28;1066;-53
2023/06/09 08:58:35;;;;;;;;;;;;;;;25.34;63.11;94997.97;4975944;28;2932;-53
2023/06/09 09:01:02;;;;;;;;;;;;;;;25.57;60.71;94990.53;4957541;29;933;-53
2023/06/09 09:03:28;;;;;;;;;;;;;;;25.39;64.25;94983.53;4957720;29;996;-53
2023/06/09 09:05:54;;;;;;;;;;;;;;;25.71;62.16;94978.91;4957795;29;1006;-53
2023/06/09 09:08:20;;;;;;;;;;;;;;;25.61;59.71;94986.19;4957503;29;1039;-53
2023/06/09 09:10:46;;;;;;;;;;;;;;;25.46;61.41;94978.66;4957475;29;1059;-54
2023/06/09 09:13:13;;;;;;;;;;;;;;;25.32;59.18;94978.25;4957432;29;1051;-54
2023/06/09 09:15:48;;;;;;;;;;;;;;;25.37;60.62;94975.56;4957475;29;1204;-53
2023/06/09 09:18:16;;;;;;;;;;;;;;;25.52;62.96;94978.47;4957435;28;1918;-53
2023/06/09 09:20:42;;;;;;;;;;;;;;;25.33;58.58;94967.06;4962871;28;3058;-54
2023/06/09 09:23:08;;;;;;;;;;;;;;;25.63;62.94;94967.59;4976014;28;2797;-53
2023/06/09 09:25:34;;;;;;;;;;;;;;;25.85;60.75;94956.56;4976639;28;2283;-53
2023/06/09 09:28:07;;;;;;;;;;;;;;;26.00;61.22;94953.97;4976484;28;1094;-53
2023/06/09 09:30:40;;;;;;;;;;;;;;;26.05;59.79;94956.75;4976915;28;975;-53
2023/06/09 09:33:10;;;;;;;;;;;;;;;26.08;57.92;94953.47;4976793;28;982;-53
2023/06/09 09:35:38;;;;;;;;;;;;;;;26.06;57.18;94952.09;4976296;28;933;-53
2023/06/09 09:38:05;;;;;;;;;;;;;;;26.34;61.44;94944.59;4976542;28;1055;-53
2023/06/09 09:40:31;;;;;;;;;;;;;;;26.49;59.15;94950.16;4976133;28;1906;-53
2023/06/09 09:43:01;;;;;;;;;;;;;;;26.21;54.41;94952.19;4976169;28;1055;-53
2023/06/09 09:45:29;;;;;;;;;;;;;;;26.03;58.60;94944.41;4976017;28;979;-53
2023/06/09 09:48:07;;;;;;;;;;;;;;;25.96;55.02;94946.53;4976084;28;1900;-53
2023/06/09 09:50:34;;;;;;;;;;;;;;;26.22;57.36;94940.16;4976012;28;978;-53
2023/06/09 09:53:02;;;;;;;;;;;;;;;26.48;57.10;94943.00;4976098;28;1047;-53
2023/06/09 09:55:28;;;;;;;;;;;;;;;26.54;55.09;94947.47;4975996;28;1014;-54
2023/06/09 09:57:57;;;;;;;;;;;;;;;26.78;56.35;94939.63;4972725;28;1511;-54
2023/06/09 10:00:23;;;;;;;;;;;;;;;26.94;56.25;94939.66;4975693;28;1902;-53
2023/06/09 10:02:51;;;;;;;;;;;;;;;26.73;53.83;94933.28;4975787;28;998;-53
2023/06/09 10:05:18;;;;;;;;;;;;;;;26.85;54.93;94937.47;4975928;28;982;-53
2023/06/09 10:07:48;;;;;;;;;;;;;;;26.76;54.42;94936.31;4975747;28;1109;-53
2023/06/09 10:10:14;;;;;;;;;;;;;;;26.84;52.61;94927.59;4975623;28;1104;-53
2023/06/09 10:12:41;;;;;;;;;;;;;;;26.96;54.26;94935.59;4975577;28;1063;-53
2023/06/09 10:15:10;;;;;;;;;;;;;;;27.13;53.16;94926.28;4975819;28;991;-53
2023/06/09 10:17:37;;;;;;;;;;;;;;;26.93;50.76;94929.81;4975586;28;1122;-53
2023/06/09 10:20:05;;;;;;;;;;;;;;;26.91;54.48;94913.63;4975095;28;1912;-53
2023/06/09 10:22:31;;;;;;;;;;;;;;;26.77;47.76;94923.44;4975664;28;998;-53
2023/06/09 10:24:58;;;;;;;;;;;;;;;26.96;49.61;94910.91;4974954;28;1372;-53
2023/06/09 10:27:24;;;;;;;;;;;;;;;27.23;52.88;94912.59;4973775;28;2555;-53
2023/06/09 10:29:51;;;;;;;;;;;;;;;27.29;49.91;94916.22;4975060;28;1190;-53
2023/06/09 10:32:21;;;;;;;;;;;;;;;27.29;48.53;94924.44;4974865;28;1109;-53
2023/06/09 10:34:49;;;;;;;;;;;;;;;27.43;54.88;94912.66;4975487;28;1056;-53
2023/06/09 10:37:31;;;;;;;;;;;;;;;27.50;53.20;94911.56;4975280;28;1010;-53
2023/06/09 10:40:09;;;;;;;;;;;;;;;27.46;49.42;94912.09;4975092;28;1993;-54
2023/06/09 10:42:42;;;;;;;;;;;;;;;27.45;49.56;94915.13;4975243;28;1221;-54
2023/06/09 10:45:08;;;;;;;;;;;;;;;27.52;49.95;94901.94;4974036;28;2838;-54
2023/06/09 10:47:45;;;;;;;;;;;;;;;27.73;49.33;94897.28;4975055;28;937;-53
2023/06/09 10:50:26;;;;;;;;;;;;;;;27.36;48.00;94897.56;4973541;28;2580;-53
2023/06/09 10:52:53;;;;;;;;;;;;;;;26.99;46.57;94893.88;4974958;28;1047;-53
2023/06/09 10:55:22;;;;;;;;;;;;;;;26.99;50.55;94891.13;4975208;28;995;-53
2023/06/09 10:57:49;;;;;;;;;;;;;;;26.78;51.58;94870.25;4974857;28;1063;-53
2023/06/09 11:00:16;;;;;;;;;;;;;;;26.45;47.63;94872.31;4974744;28;1993;-54
2023/06/09 11:02:44;;;;;;;;;;;;;;;26.19;50.60;94863.94;4957910;28;987;-53
2023/06/09 11:05:10;;;;;;;;;;;;;;;26.09;49.53;94867.47;4975062;28;987;-53
2023/06/09 11:07:43;;;;;;;;;;;;;;;26.19;49.50;94872.16;4974849;28;971;-53
2023/06/09 11:10:12;;;;;;;;;;;;;;;26.25;50.53;94878.50;4974659;28;1282;-53
2023/06/09 11:12:42;;;;;;;;;;;;;;;26.64;54.21;94870.75;4973237;28;2603;-54
2023/06/09 11:15:10;;;;;;;;;;;;;;;27.19;48.64;94881.31;4974886;28;1075;-53
2023/06/09 11:17:39;;;;;;;;;;;;;;;27.26;47.56;94881.88;4974697;28;1125;-54
2023/06/09 11:20:11;;;;;;;;;;;;;;;26.99;49.55;94873.84;4974646;28;1910;-53
2023/06/09 11:22:40;;;;;;;;;;;;;;;26.80;48.34;94874.34;4974507;28;1250;-54
2023/06/09 11:25:27;;;;;;;;;;;;;;;26.66;55.00;94865.81;4974352;28;1428;-53
2023/06/09 11:27:57;;;;;;;;;;;;;;;26.35;56.45;94875.81;4964539;28;1180;-53
2023/06/09 11:30:24;;;;;;;;;;;;;;;26.21;56.42;94877.38;4974123;28;1401;-53
2023/06/09 11:33:01;;;;;;;;;;;;;;;26.19;55.21;94868.63;4974684;28;1010;-53
2023/06/09 11:35:28;;;;;;;;;;;;;;;26.17;55.38;94862.56;4974371;28;1113;-53
2023/06/09 11:38:07;;;;;;;;;;;;;;;26.15;50.95;94862.03;4973274;28;2540;-53
2023/06/09 11:40:35;;;;;;;;;;;;;;;26.08;48.15;94864.97;4974095;28;1974;-53
2023/06/09 11:43:02;;;;;;;;;;;;;;;26.00;49.69;94866.31;4975615;28;1066;-53
2023/06/09 11:45:32;;;;;;;;;;;;;;;25.92;54.01;94857.78;4961172;28;1066;-54
2023/06/09 11:47:59;;;;;;;;;;;;;;;25.77;52.52;94861.22;4978338;28;1130;-53
2023/06/09 11:50:26;;;;;;;;;;;;;;;25.62;50.38;94864.66;4977975;28;1114;-54
2023/06/09 11:53:02;;;;;;;;;;;;;;;25.49;53.08;94855.81;4978226;28;1110;-54
2023/06/09 11:55:29;;;;;;;;;;;;;;;25.37;53.25;94866.13;4978414;28;1046;-53
2023/06/09 11:57:55;;;;;;;;;;;;;;;25.24;56.76;94864.63;4978479;28;994;-53
2023/06/09 12:00:26;;;;;;;;;;;;;;;25.07;58.34;94875.66;4960520;28;1903;-53
2023/06/09 12:02:53;;;;;;;;;;;;;;;24.71;58.00;94880.75;4978488;28;1014;-53
2023/06/09 12:05:19;;;;;;;;;;;;;;;24.54;56.47;94886.31;4978253;28;1043;-53
2023/06/09 12:07:46;;;;;;;;;;;;;;;24.35;57.29;94883.03;4978203;28;976;-53
2023/06/09 12:10:13;;;;;;;;;;;;;;;24.24;58.01;94888.63;4977831;28;1162;-53
2023/06/09 12:12:46;;;;;;;;;;;;;;;24.16;58.59;94890.72;4977338;28;2430;-53
2023/06/09 12:15:14;;;;;;;;;;;;;;;23.97;63.43;94886.63;4977147;28;2746;-53
2023/06/09 12:17:40;;;;;;;;;;;;;;;23.82;65.59;94884.50;4977794;28;1055;-53
2023/06/09 12:20:18;;;;;;;;;;;;;;;23.80;67.71;94880.38;4977405;28;1981;-52
2023/06/09 12:22:44;;;;;;;;;;;;;;;23.75;69.23;94868.28;4977751;28;1104;-52
2023/06/09 12:25:30;;;;;;;;;;;;;;;23.80;68.28;94864.00;4977213;28;1435;-53
2023/06/09 12:27:58;;;;;;;;;;;;;;;23.99;70.15;94867.28;4976215;28;2822;-52
2023/06/09 12:30:33;;;;;;;;;;;;;;;24.08;68.61;94866.56;4977492;28;1233;-52
2023/06/09 12:33:12;;;;;;;;;;;;;;;24.20;72.53;94857.44;4977418;28;1031;-52
2023/06/09 12:35:39;;;;;;;;;;;;;;;24.22;73.42;94850.63;4977535;28;1137;-52
2023/06/09 12:38:09;;;;;;;;;;;;;;;24.30;77.47;94841.16;4977738;28;1030;-52
2023/06/09 12:40:41;;;;;;;;;;;;;;;24.30;75.10;94843.91;4977146;28;1993;-52
2023/06/09 12:43:07;;;;;;;;;;;;;;;24.49;74.13;94852.59;4977649;28;1023;-52
2023/06/09 12:45:34;;;;;;;;;;;;;;;24.77;74.43;94854.31;4976816;28;1043;-52
2023/06/09 12:48:04;;;;;;;;;;;;;;;25.18;69.27;94845.69;4974611;28;1611;-52
2023/06/09 12:50:30;;;;;;;;;;;;;;;25.24;69.89;94855.63;4977448;28;959;-53
2023/06/09 12:52:56;;;;;;;;;;;;;;;25.58;55.15;94866.28;4976671;28;1093;-52
2023/06/09 12:55:23;;;;;;;;;;;;;;;25.67;53.56;94859.25;4976512;28;1379;-53
2023/06/09 12:57:50;;;;;;;;;;;;;;;25.57;56.77;94857.22;4977134;28;1056;-53